Flight Track Log - Related Links

Times and Time Zones

All times are in EDT time to prevent confusion due to time zone crossing. See the AMF1324 flight status page for this flight to view local times or setup timezone preferences in your user account.

Time Position Orientation Groundspeed Altitude Reporting Facility
EDT Latitude Longitude Course Direction KTS MPH feet Rate Location/Type
Wed 08:53:41 AM 42.1636 -76.0108 276° West 150 173 4,800  Level New York Center
Wed 08:54:41 AM 42.1689 -76.0814 276° West 144 166 6,500 1,700 Climbing New York Center
Wed 08:55:41 AM 42.1739 -76.1572 275° West 172 198 8,200 1,650 Climbing New York Center
Wed 08:56:41 AM 42.1872 -76.2283 284° West 187 215 9,800 1,600 Climbing New York Center
Wed 08:57:41 AM 42.2136 -76.2919 299° West 192 221 11,400 790 Climbing New York Center
Wed 08:59:28 AM 42.2719 -76.4239 301° West 210 242 12,000 213 Climbing Cleveland Center
Wed 09:00:30 AM 42.3044 -76.5003 300° West 221 254 12,000  Level Cleveland Center
Wed 09:01:32 AM 42.3425 -76.5789 303° West 234 269 12,000 48 Level Cleveland Center
Wed 09:02:34 AM 42.3878 -76.6711 304° West 273 314 12,100  Climbing Cleveland Center
Wed 09:03:36 AM 42.4231 -76.7464 302° West 250 288 12,000  Descending Cleveland Center
Wed 09:04:38 AM 42.4606 -76.8408 298° West 242 278 12,100 48 Climbing Cleveland Center
Wed 09:05:40 AM 42.4986 -76.9253 301° West 252 290 12,100  Level Cleveland Center
Wed 09:06:42 AM 42.5325 -77.0069 299° West 251 289 12,100  Level Cleveland Center
Wed 09:07:44 AM 42.5664 -77.0878 300° West 251 289 12,100 -48 Level Cleveland Center
Wed 09:08:46 AM 42.6019 -77.1700 300° West 252 290 12,000 -48 Descending Cleveland Center
Wed 09:09:48 AM 42.6369 -77.2506 301° West 248 285 12,000  Level Cleveland Center
Wed 09:10:50 AM 42.6764 -77.3500 298° West 250 288 12,000 -76 Level Cleveland Center
Wed 09:11:07 AM 42.6861 -77.3750 298° West 252 290 11,900 -774 Descending Cleveland Center
Wed 09:11:52 AM 42.7172 -77.4347 305° West 263 303 11,200 -944 Descending Cleveland Center
Wed 09:12:55 AM 42.7531 -77.5261 298° West 272 313 10,200 -1,031 Descending Cleveland Center
Wed 09:12:56 AM 42.7514 -77.5303 241° Southwest 275 316 10,100 -194 Descending Cleveland Center
Wed 09:13:57 AM 42.7897 -77.6128 302° West 266 306 10,000 -52 Descending Cleveland Center
Wed 09:14:51 AM 42.8219 -77.6900 300° West 244 281 10,000  Level Cleveland Center
Wed 09:14:59 AM 42.8222 -77.6931 277° West 246 283 10,000  Level Cleveland Center
Wed 09:15:52 AM 42.8389 -77.7781 285° West 242 278 10,000  Level Cleveland Center
Wed 09:16:01 AM 42.8444 -77.7806 342° North 255 293 10,000  Level Cleveland Center
Wed 09:17:03 AM 42.8442 -77.8914 270° West 254 292 10,000  Level Cleveland Center
Wed 09:18:05 AM 42.8553 -77.9861 279° West 250 288 10,000 -145 Level Cleveland Center
Wed 09:19:07 AM 42.8592 -78.0839 273° West 247 284 9,700 -871 Descending Cleveland Center
Wed 09:20:09 AM 42.8694 -78.1792 278° West 266 306 8,200 -1,403 Descending Cleveland Center
Wed 09:21:11 AM 42.8889 -78.2825 284° West 274 315 6,800 -1,210 Descending Cleveland Center
Wed 09:22:13 AM 42.9142 -78.3783 290° West 260 299 5,700 -1,065 Descending Cleveland Center
Wed 09:23:15 AM 42.9436 -78.4683 294° West 251 289 4,600 -1,210 Descending Cleveland Center
Wed 09:24:17 AM 42.9717 -78.5525 295° West 234 269 3,200 -1,016 Descending Cleveland Center
Wed 09:25:19 AM 42.9919 -78.6225 292° West 215 247 2,500 -699 Descending Cleveland Center
Wed 09:26:00 AM 42.9833 -78.6500 247° West 127 146 2,000 -713 Descending Buffalo TRACON
Wed 09:27:00 AM 42.9667 -78.7000 246° West 124 143 1,300 -700 Descending Buffalo TRACON
Wed 09:29:00 AM 42.9333 -78.7167 270° West  Level FlightAware Approximate
Wed 09:36:00 AM 42.9404 -78.7306 270° West  Level Estimated

Login

Don't have an account? Register now (free) for customized features, flight alerts, and more!